sensor_id;sensor_type;location;lat;lon;timestamp;P1;durP1;ratioP1;P2;durP2;ratioP2
8952;SDS011;4511;50.890;8.054;2024-01-15T00:00:05;20.30;;;13.23;;
8952;SDS011;4511;50.890;8.054;2024-01-15T00:02:35;19.13;;;14.13;;
8952;SDS011;4511;50.890;8.054;2024-01-15T00:05:01;23.30;;;16.40;;
8952;SDS011;4511;50.890;8.054;2024-01-15T00:07:28;26.40;;;16.17;;
8952;SDS011;4511;50.890;8.054;2024-01-15T00:09:55;27.87;;;18.17;;
8952;SDS011;4511;50.890;8.054;2024-01-15T00:12:21;24.13;;;16.33;;
8952;SDS011;4511;50.890;8.054;2024-01-15T00:14:48;29.17;;;16.73;;
8952;SDS011;4511;50.890;8.054;2024-01-15T00:17:15;26.70;;;18.33;;
8952;SDS011;4511;50.890;8.054;2024-01-15T00:19:43;23.30;;;16.00;;
8952;SDS011;4511;50.890;8.054;2024-01-15T00:22:10;24.13;;;16.60;;
8952;SDS011;4511;50.890;8.054;2024-01-15T00:24:36;26.27;;;18.37;;
8952;SDS011;4511;50.890;8.054;2024-01-15T00:27:03;26.27;;;18.50;;
8952;SDS011;4511;50.890;8.054;2024-01-15T00:29:30;30.93;;;18.53;;
8952;SDS011;4511;50.890;8.054;2024-01-15T00:31:57;23.60;;;15.87;;
8952;SDS011;4511;50.890;8.054;2024-01-15T00:34:24;29.07;;;19.70;;
8952;SDS011;4511;50.890;8.054;2024-01-15T00:36:52;28.40;;;18.23;;
8952;SDS011;4511;50.890;8.054;2024-01-15T00:39:18;30.10;;;18.20;;
8952;SDS011;4511;50.890;8.054;2024-01-15T00:41:45;27.70;;;19.53;;
8952;SDS011;4511;50.890;8.054;2024-01-15T00:44:12;39.20;;;20.07;;
8952;SDS011;4511;50.890;8.054;2024-01-15T00:46:42;30.57;;;19.97;;
8952;SDS011;4511;50.890;8.054;2024-01-15T00:49:10;32.17;;;18.23;;
8952;SDS011;4511;50.890;8.054;2024-01-15T00:51:38;33.73;;;19.83;;
8952;SDS011;4511;50.890;8.054;2024-01-15T00:54:06;33.20;;;20.00;;
8952;SDS011;4511;50.890;8.054;2024-01-15T00:56:33;28.47;;;19.47;;
8952;SDS011;4511;50.890;8.054;2024-01-15T00:59:00;29.67;;;19.03;;
8952;SDS011;4511;50.890;8.054;2024-01-15T01:01:27;30.90;;;20.90;;
8952;SDS011;4511;50.890;8.054;2024-01-15T01:03:53;32.33;;;19.93;;
8952;SDS011;4511;50.890;8.054;2024-01-15T01:06:20;28.37;;;17.87;;
8952;SDS011;4511;50.890;8.054;2024-01-15T01:08:47;34.33;;;18.37;;
8952;SDS011;4511;50.890;8.054;2024-01-15T01:11:15;30.60;;;18.47;;
8952;SDS011;4511;50.890;8.054;2024-01-15T01:13:42;33.07;;;18.90;;
8952;SDS011;4511;50.890;8.054;2024-01-15T01:16:09;26.70;;;17.93;;
8952;SDS011;4511;50.890;8.054;2024-01-15T01:18:35;31.23;;;18.30;;
8952;SDS011;4511;50.890;8.054;2024-01-15T01:21:02;26.87;;;17.27;;
8952;SDS011;4511;50.890;8.054;2024-01-15T01:23:29;27.40;;;17.57;;
8952;SDS011;4511;50.890;8.054;2024-01-15T01:25:56;29.17;;;20.37;;
8952;SDS011;4511;50.890;8.054;2024-01-15T01:28:24;27.60;;;17.40;;
8952;SDS011;4511;50.890;8.054;2024-01-15T01:30:51;28.30;;;17.47;;
8952;SDS011;4511;50.890;8.054;2024-01-15T01:33:17;32.53;;;17.57;;
8952;SDS011;4511;50.890;8.054;2024-01-15T01:35:44;27.73;;;17.87;;
8952;SDS011;4511;50.890;8.054;2024-01-15T01:38:11;30.57;;;19.17;;
8952;SDS011;4511;50.890;8.054;2024-01-15T01:40:38;26.67;;;17.50;;
8952;SDS011;4511;50.890;8.054;2024-01-15T01:43:05;29.83;;;17.27;;
8952;SDS011;4511;50.890;8.054;2024-01-15T01:45:33;27.50;;;16.90;;
8952;SDS011;4511;50.890;8.054;2024-01-15T01:48:02;26.73;;;15.53;;
8952;SDS011;4511;50.890;8.054;2024-01-15T01:50:30;23.87;;;16.10;;
8952;SDS011;4511;50.890;8.054;2024-01-15T01:52:57;24.93;;;16.10;;
8952;SDS011;4511;50.890;8.054;2024-01-15T01:55:25;20.97;;;14.20;;
8952;SDS011;4511;50.890;8.054;2024-01-15T01:57:54;24.13;;;15.73;;
8952;SDS011;4511;50.890;8.054;2024-01-15T02:00:21;23.60;;;15.70;;
8952;SDS011;4511;50.890;8.054;2024-01-15T02:02:50;22.03;;;15.00;;
8952;SDS011;4511;50.890;8.054;2024-01-15T02:05:18;19.63;;;14.40;;
8952;SDS011;4511;50.890;8.054;2024-01-15T02:07:45;21.30;;;15.60;;
8952;SDS011;4511;50.890;8.054;2024-01-15T02:10:12;20.17;;;15.43;;
8952;SDS011;4511;50.890;8.054;2024-01-15T02:12:39;19.00;;;14.17;;
8952;SDS011;4511;50.890;8.054;2024-01-15T02:15:06;21.90;;;15.27;;
8952;SDS011;4511;50.890;8.054;2024-01-15T02:17:33;22.03;;;14.83;;
8952;SDS011;4511;50.890;8.054;2024-01-15T02:20:01;20.57;;;15.30;;
8952;SDS011;4511;50.890;8.054;2024-01-15T02:22:29;23.40;;;16.20;;
8952;SDS011;4511;50.890;8.054;2024-01-15T02:24:57;21.50;;;15.03;;
8952;SDS011;4511;50.890;8.054;2024-01-15T02:27:25;24.27;;;16.60;;
8952;SDS011;4511;50.890;8.054;2024-01-15T02:29:51;24.77;;;17.10;;
8952;SDS011;4511;50.890;8.054;2024-01-15T02:32:18;20.43;;;15.20;;
8952;SDS011;4511;50.890;8.054;2024-01-15T02:34:45;26.57;;;16.57;;
8952;SDS011;4511;50.890;8.054;2024-01-15T02:37:12;25.87;;;15.87;;
8952;SDS011;4511;50.890;8.054;2024-01-15T02:39:38;24.97;;;16.23;;
8952;SDS011;4511;50.890;8.054;2024-01-15T02:42:06;25.57;;;17.20;;
8952;SDS011;4511;50.890;8.054;2024-01-15T02:44:33;25.67;;;17.83;;
8952;SDS011;4511;50.890;8.054;2024-01-15T02:47:00;27.40;;;17.67;;
8952;SDS011;4511;50.890;8.054;2024-01-15T02:49:27;26.10;;;17.67;;
8952;SDS011;4511;50.890;8.054;2024-01-15T02:51:54;23.93;;;17.20;;
8952;SDS011;4511;50.890;8.054;2024-01-15T02:54:20;30.97;;;18.57;;
8952;SDS011;4511;50.890;8.054;2024-01-15T02:56:47;24.47;;;16.57;;
8952;SDS011;4511;50.890;8.054;2024-01-15T02:59:15;29.17;;;19.13;;
8952;SDS011;4511;50.890;8.054;2024-01-15T03:01:42;30.23;;;18.70;;
8952;SDS011;4511;50.890;8.054;2024-01-15T03:04:08;28.77;;;17.53;;
8952;SDS011;4511;50.890;8.054;2024-01-15T03:06:35;30.80;;;19.17;;
8952;SDS011;4511;50.890;8.054;2024-01-15T03:09:02;29.40;;;18.67;;
8952;SDS011;4511;50.890;8.054;2024-01-15T03:11:29;28.67;;;18.17;;
8952;SDS011;4511;50.890;8.054;2024-01-15T03:13:55;31.57;;;19.57;;
8952;SDS011;4511;50.890;8.054;2024-01-15T03:16:23;26.80;;;18.37;;
8952;SDS011;4511;50.890;8.054;2024-01-15T03:18:50;28.27;;;17.53;;
8952;SDS011;4511;50.890;8.054;2024-01-15T03:21:17;28.63;;;18.40;;
8952;SDS011;4511;50.890;8.054;2024-01-15T03:23:43;28.37;;;18.83;;
8952;SDS011;4511;50.890;8.054;2024-01-15T03:26:10;33.10;;;21.23;;
8952;SDS011;4511;50.890;8.054;2024-01-15T03:28:37;30.63;;;18.60;;
8952;SDS011;4511;50.890;8.054;2024-01-15T03:31:04;24.80;;;16.87;;
8952;SDS011;4511;50.890;8.054;2024-01-15T03:33:32;27.97;;;18.87;;
8952;SDS011;4511;50.890;8.054;2024-01-15T03:35:58;28.20;;;19.37;;
8952;SDS011;4511;50.890;8.054;2024-01-15T03:38:27;25.83;;;16.90;;
8952;SDS011;4511;50.890;8.054;2024-01-15T03:40:54;27.77;;;17.30;;
8952;SDS011;4511;50.890;8.054;2024-01-15T03:43:21;25.17;;;17.10;;
8952;SDS011;4511;50.890;8.054;2024-01-15T03:45:48;24.33;;;16.33;;
8952;SDS011;4511;50.890;8.054;2024-01-15T03:48:14;27.23;;;17.03;;
8952;SDS011;4511;50.890;8.054;2024-01-15T03:50:43;31.00;;;18.37;;
8952;SDS011;4511;50.890;8.054;2024-01-15T03:53:09;33.50;;;19.97;;
8952;SDS011;4511;50.890;8.054;2024-01-15T03:55:36;42.30;;;22.20;;
8952;SDS011;4511;50.890;8.054;2024-01-15T03:58:03;36.50;;;21.60;;
8952;SDS011;4511;50.890;8.054;2024-01-15T04:00:29;39.33;;;22.33;;
8952;SDS011;4511;50.890;8.054;2024-01-15T04:02:56;37.80;;;21.17;;
8952;SDS011;4511;50.890;8.054;2024-01-15T04:05:23;45.90;;;24.60;;
8952;SDS011;4511;50.890;8.054;2024-01-15T04:07:51;38.83;;;20.93;;
8952;SDS011;4511;50.890;8.054;2024-01-15T04:10:18;35.67;;;20.50;;
8952;SDS011;4511;50.890;8.054;2024-01-15T04:12:44;38.67;;;20.90;;
8952;SDS011;4511;50.890;8.054;2024-01-15T04:15:12;32.83;;;19.63;;
8952;SDS011;4511;50.890;8.054;2024-01-15T04:17:38;29.93;;;18.60;;
8952;SDS011;4511;50.890;8.054;2024-01-15T04:20:06;31.37;;;19.23;;
8952;SDS011;4511;50.890;8.054;2024-01-15T04:22:33;30.13;;;18.57;;
8952;SDS011;4511;50.890;8.054;2024-01-15T04:25:02;34.67;;;20.57;;
8952;SDS011;4511;50.890;8.054;2024-01-15T04:27:30;26.97;;;16.60;;
8952;SDS011;4511;50.890;8.054;2024-01-15T04:29:57;27.40;;;17.00;;
8952;SDS011;4511;50.890;8.054;2024-01-15T04:32:23;26.87;;;16.70;;
8952;SDS011;4511;50.890;8.054;2024-01-15T04:34:50;26.00;;;17.03;;
8952;SDS011;4511;50.890;8.054;2024-01-15T04:37:17;32.67;;;17.83;;
8952;SDS011;4511;50.890;8.054;2024-01-15T04:39:44;24.40;;;16.27;;
8952;SDS011;4511;50.890;8.054;2024-01-15T04:42:12;25.67;;;15.93;;
8952;SDS011;4511;50.890;8.054;2024-01-15T04:44:39;24.40;;;16.80;;
8952;SDS011;4511;50.890;8.054;2024-01-15T04:47:05;27.03;;;17.30;;
8952;SDS011;4511;50.890;8.054;2024-01-15T04:49:32;25.10;;;16.67;;
8952;SDS011;4511;50.890;8.054;2024-01-15T04:51:59;25.77;;;16.40;;
8952;SDS011;4511;50.890;8.054;2024-01-15T04:54:25;25.90;;;15.93;;
8952;SDS011;4511;50.890;8.054;2024-01-15T04:56:52;28.50;;;15.90;;
8952;SDS011;4511;50.890;8.054;2024-01-15T04:59:20;21.83;;;14.80;;
8952;SDS011;4511;50.890;8.054;2024-01-15T05:01:47;22.33;;;14.57;;
8952;SDS011;4511;50.890;8.054;2024-01-15T05:04:14;25.93;;;15.30;;
8952;SDS011;4511;50.890;8.054;2024-01-15T05:06:41;25.27;;;15.50;;
8952;SDS011;4511;50.890;8.054;2024-01-15T05:09:07;25.43;;;14.83;;
8952;SDS011;4511;50.890;8.054;2024-01-15T05:11:34;22.57;;;15.03;;
8952;SDS011;4511;50.890;8.054;2024-01-15T05:14:01;24.70;;;15.80;;
8952;SDS011;4511;50.890;8.054;2024-01-15T05:16:29;27.97;;;15.53;;
8952;SDS011;4511;50.890;8.054;2024-01-15T05:18:56;27.60;;;15.63;;
8952;SDS011;4511;50.890;8.054;2024-01-15T05:21:23;25.03;;;16.20;;
8952;SDS011;4511;50.890;8.054;2024-01-15T05:23:49;28.03;;;16.93;;
8952;SDS011;4511;50.890;8.054;2024-01-15T05:26:16;24.43;;;15.67;;
8952;SDS011;4511;50.890;8.054;2024-01-15T05:28:43;28.63;;;17.30;;
8952;SDS011;4511;50.890;8.054;2024-01-15T05:31:09;31.57;;;18.80;;
8952;SDS011;4511;50.890;8.054;2024-01-15T05:33:38;30.57;;;18.80;;
8952;SDS011;4511;50.890;8.054;2024-01-15T05:36:05;30.93;;;18.87;;
8952;SDS011;4511;50.890;8.054;2024-01-15T05:38:32;29.70;;;18.47;;
8952;SDS011;4511;50.890;8.054;2024-01-15T05:40:59;33.03;;;18.07;;
8952;SDS011;4511;50.890;8.054;2024-01-15T05:43:25;32.27;;;18.57;;
8952;SDS011;4511;50.890;8.054;2024-01-15T05:45:52;31.23;;;18.53;;
8952;SDS011;4511;50.890;8.054;2024-01-15T05:48:19;27.83;;;17.80;;
8952;SDS011;4511;50.890;8.054;2024-01-15T05:50:47;28.50;;;17.63;;
8952;SDS011;4511;50.890;8.054;2024-01-15T05:53:14;31.17;;;18.87;;
8952;SDS011;4511;50.890;8.054;2024-01-15T05:55:40;27.13;;;17.03;;
8952;SDS011;4511;50.890;8.054;2024-01-15T05:58:07;33.67;;;21.67;;
8952;SDS011;4511;50.890;8.054;2024-01-15T06:00:34;35.43;;;17.53;;
8952;SDS011;4511;50.890;8.054;2024-01-15T06:03:03;24.60;;;15.30;;
8952;SDS011;4511;50.890;8.054;2024-01-15T06:05:30;28.07;;;17.23;;
8952;SDS011;4511;50.890;8.054;2024-01-15T06:07:58;35.47;;;18.27;;
8952;SDS011;4511;50.890;8.054;2024-01-15T06:10:25;29.50;;;18.70;;
8952;SDS011;4511;50.890;8.054;2024-01-15T06:12:52;30.83;;;19.73;;
8952;SDS011;4511;50.890;8.054;2024-01-15T06:15:18;30.67;;;17.37;;
8952;SDS011;4511;50.890;8.054;2024-01-15T06:17:45;29.90;;;18.10;;
8952;SDS011;4511;50.890;8.054;2024-01-15T06:20:12;33.90;;;19.10;;
8952;SDS011;4511;50.890;8.054;2024-01-15T06:22:39;26.63;;;17.47;;
8952;SDS011;4511;50.890;8.054;2024-01-15T06:25:07;32.37;;;18.53;;
8952;SDS011;4511;50.890;8.054;2024-01-15T06:27:34;29.87;;;17.80;;
8952;SDS011;4511;50.890;8.054;2024-01-15T06:30:01;30.07;;;17.90;;
8952;SDS011;4511;50.890;8.054;2024-01-15T06:32:28;36.30;;;20.50;;
8952;SDS011;4511;50.890;8.054;2024-01-15T06:34:55;29.63;;;17.20;;
8952;SDS011;4511;50.890;8.054;2024-01-15T06:37:22;37.60;;;21.27;;
8952;SDS011;4511;50.890;8.054;2024-01-15T06:39:48;32.07;;;18.83;;
8952;SDS011;4511;50.890;8.054;2024-01-15T06:42:16;33.33;;;21.33;;
8952;SDS011;4511;50.890;8.054;2024-01-15T06:44:43;27.23;;;18.33;;
8952;SDS011;4511;50.890;8.054;2024-01-15T06:47:10;34.27;;;18.20;;
8952;SDS011;4511;50.890;8.054;2024-01-15T06:49:36;32.83;;;18.67;;
8952;SDS011;4511;50.890;8.054;2024-01-15T06:52:03;37.30;;;19.50;;
8952;SDS011;4511;50.890;8.054;2024-01-15T06:54:31;32.10;;;17.90;;
8952;SDS011;4511;50.890;8.054;2024-01-15T06:56:57;27.60;;;17.20;;
8952;SDS011;4511;50.890;8.054;2024-01-15T06:59:25;33.63;;;19.37;;
8952;SDS011;4511;50.890;8.054;2024-01-15T07:01:52;26.97;;;16.83;;
8952;SDS011;4511;50.890;8.054;2024-01-15T07:04:20;31.93;;;17.97;;
8952;SDS011;4511;50.890;8.054;2024-01-15T07:06:46;27.67;;;17.20;;
8952;SDS011;4511;50.890;8.054;2024-01-15T07:09:13;31.40;;;16.43;;
8952;SDS011;4511;50.890;8.054;2024-01-15T07:11:43;26.37;;;16.67;;
8952;SDS011;4511;50.890;8.054;2024-01-15T07:14:10;27.83;;;16.63;;
8952;SDS011;4511;50.890;8.054;2024-01-15T07:16:38;25.47;;;18.37;;
8952;SDS011;4511;50.890;8.054;2024-01-15T07:19:05;34.27;;;17.83;;
8952;SDS011;4511;50.890;8.054;2024-01-15T07:21:32;33.67;;;17.30;;
8952;SDS011;4511;50.890;8.054;2024-01-15T07:23:59;31.47;;;17.57;;
8952;SDS011;4511;50.890;8.054;2024-01-15T07:26:25;31.73;;;19.53;;
8952;SDS011;4511;50.890;8.054;2024-01-15T07:28:52;28.93;;;17.30;;
8952;SDS011;4511;50.890;8.054;2024-01-15T07:31:19;29.80;;;17.37;;
8952;SDS011;4511;50.890;8.054;2024-01-15T07:33:47;27.60;;;17.37;;
8952;SDS011;4511;50.890;8.054;2024-01-15T07:36:14;28.40;;;15.60;;
8952;SDS011;4511;50.890;8.054;2024-01-15T07:38:41;24.97;;;16.50;;
8952;SDS011;4511;50.890;8.054;2024-01-15T07:41:08;29.23;;;16.60;;
8952;SDS011;4511;50.890;8.054;2024-01-15T07:43:35;24.37;;;15.83;;
8952;SDS011;4511;50.890;8.054;2024-01-15T07:46:01;23.13;;;17.20;;
8952;SDS011;4511;50.890;8.054;2024-01-15T07:48:28;25.43;;;16.07;;
8952;SDS011;4511;50.890;8.054;2024-01-15T07:50:56;20.53;;;14.10;;
8952;SDS011;4511;50.890;8.054;2024-01-15T07:53:23;25.67;;;16.87;;
8952;SDS011;4511;50.890;8.054;2024-01-15T07:55:50;22.77;;;15.50;;
8952;SDS011;4511;50.890;8.054;2024-01-15T07:58:16;27.70;;;15.60;;
8952;SDS011;4511;50.890;8.054;2024-01-15T08:00:43;25.13;;;14.80;;
8952;SDS011;4511;50.890;8.054;2024-01-15T08:03:10;24.00;;;14.53;;
8952;SDS011;4511;50.890;8.054;2024-01-15T08:05:37;18.93;;;13.80;;
8952;SDS011;4511;50.890;8.054;2024-01-15T08:08:05;17.73;;;14.10;;
8952;SDS011;4511;50.890;8.054;2024-01-15T08:10:32;18.57;;;14.23;;
8952;SDS011;4511;50.890;8.054;2024-01-15T08:12:59;17.73;;;13.20;;
8952;SDS011;4511;50.890;8.054;2024-01-15T08:15:26;19.50;;;14.87;;
8952;SDS011;4511;50.890;8.054;2024-01-15T08:17:53;18.60;;;13.60;;
8952;SDS011;4511;50.890;8.054;2024-01-15T08:20:19;17.13;;;12.33;;
8952;SDS011;4511;50.890;8.054;2024-01-15T08:22:46;16.83;;;13.50;;
8952;SDS011;4511;50.890;8.054;2024-01-15T08:25:15;16.17;;;13.30;;
8952;SDS011;4511;50.890;8.054;2024-01-15T08:27:41;18.70;;;13.13;;
8952;SDS011;4511;50.890;8.054;2024-01-15T08:30:09;19.50;;;14.00;;
8952;SDS011;4511;50.890;8.054;2024-01-15T08:32:36;19.13;;;12.57;;
8952;SDS011;4511;50.890;8.054;2024-01-15T08:35:07;17.70;;;12.80;;
8952;SDS011;4511;50.890;8.054;2024-01-15T08:37:34;18.27;;;13.13;;
8952;SDS011;4511;50.890;8.054;2024-01-15T08:40:01;16.80;;;12.80;;
8952;SDS011;4511;50.890;8.054;2024-01-15T08:42:29;19.00;;;12.67;;
8952;SDS011;4511;50.890;8.054;2024-01-15T08:44:56;15.97;;;12.27;;
8952;SDS011;4511;50.890;8.054;2024-01-15T08:47:23;15.50;;;12.50;;
8952;SDS011;4511;50.890;8.054;2024-01-15T08:49:50;14.27;;;11.43;;
8952;SDS011;4511;50.890;8.054;2024-01-15T08:52:17;13.50;;;10.70;;
8952;SDS011;4511;50.890;8.054;2024-01-15T08:54:45;11.63;;;10.40;;
8952;SDS011;4511;50.890;8.054;2024-01-15T08:57:11;11.20;;;9.67;;
8952;SDS011;4511;50.890;8.054;2024-01-15T08:59:39;13.30;;;10.40;;
8952;SDS011;4511;50.890;8.054;2024-01-15T09:02:06;16.67;;;11.80;;
8952;SDS011;4511;50.890;8.054;2024-01-15T09:04:33;13.03;;;10.83;;
8952;SDS011;4511;50.890;8.054;2024-01-15T09:07:00;14.13;;;12.30;;
8952;SDS011;4511;50.890;8.054;2024-01-15T09:09:27;13.57;;;12.10;;
8952;SDS011;4511;50.890;8.054;2024-01-15T09:11:54;18.17;;;13.10;;
8952;SDS011;4511;50.890;8.054;2024-01-15T09:14:20;16.20;;;13.60;;
8952;SDS011;4511;50.890;8.054;2024-01-15T09:16:50;16.17;;;11.43;;
8952;SDS011;4511;50.890;8.054;2024-01-15T09:19:17;19.33;;;12.43;;
8952;SDS011;4511;50.890;8.054;2024-01-15T09:21:44;16.10;;;12.60;;
8952;SDS011;4511;50.890;8.054;2024-01-15T09:24:10;13.87;;;11.23;;
8952;SDS011;4511;50.890;8.054;2024-01-15T09:26:37;15.70;;;12.73;;
8952;SDS011;4511;50.890;8.054;2024-01-15T09:29:04;12.37;;;10.10;;
8952;SDS011;4511;50.890;8.054;2024-01-15T09:31:30;12.53;;;10.40;;
8952;SDS011;4511;50.890;8.054;2024-01-15T09:33:58;14.60;;;11.67;;
8952;SDS011;4511;50.890;8.054;2024-01-15T09:36:27;15.50;;;11.13;;
8952;SDS011;4511;50.890;8.054;2024-01-15T09:38:54;17.60;;;12.27;;
8952;SDS011;4511;50.890;8.054;2024-01-15T09:41:20;15.80;;;11.53;;
8952;SDS011;4511;50.890;8.054;2024-01-15T09:43:47;14.70;;;11.80;;
8952;SDS011;4511;50.890;8.054;2024-01-15T09:46:14;14.07;;;11.50;;
8952;SDS011;4511;50.890;8.054;2024-01-15T09:48:42;15.03;;;11.13;;
8952;SDS011;4511;50.890;8.054;2024-01-15T09:51:10;12.03;;;10.23;;
8952;SDS011;4511;50.890;8.054;2024-01-15T09:53:37;13.03;;;10.90;;
8952;SDS011;4511;50.890;8.054;2024-01-15T09:56:06;13.80;;;10.70;;
8952;SDS011;4511;50.890;8.054;2024-01-15T09:58:34;15.37;;;11.17;;
8952;SDS011;4511;50.890;8.054;2024-01-15T10:01:01;13.37;;;10.27;;
8952;SDS011;4511;50.890;8.054;2024-01-15T10:03:29;13.43;;;11.90;;
8952;SDS011;4511;50.890;8.054;2024-01-15T10:05:56;17.63;;;12.10;;
8952;SDS011;4511;50.890;8.054;2024-01-15T10:08:26;15.77;;;11.70;;
8952;SDS011;4511;50.890;8.054;2024-01-15T10:10:53;15.23;;;11.27;;
8952;SDS011;4511;50.890;8.054;2024-01-15T10:13:19;14.77;;;11.10;;
8952;SDS011;4511;50.890;8.054;2024-01-15T10:15:47;12.17;;;10.50;;
8952;SDS011;4511;50.890;8.054;2024-01-15T10:18:14;12.60;;;11.23;;
8952;SDS011;4511;50.890;8.054;2024-01-15T10:20:40;12.93;;;10.27;;
8952;SDS011;4511;50.890;8.054;2024-01-15T10:23:07;18.63;;;12.43;;
8952;SDS011;4511;50.890;8.054;2024-01-15T10:25:36;19.43;;;11.57;;
8952;SDS011;4511;50.890;8.054;2024-01-15T10:28:03;14.70;;;11.20;;
8952;SDS011;4511;50.890;8.054;2024-01-15T10:30:31;13.03;;;10.33;;
8952;SDS011;4511;50.890;8.054;2024-01-15T10:32:59;15.03;;;11.13;;
8952;SDS011;4511;50.890;8.054;2024-01-15T10:35:26;16.20;;;10.73;;
8952;SDS011;4511;50.890;8.054;2024-01-15T10:37:55;14.40;;;10.83;;
8952;SDS011;4511;50.890;8.054;2024-01-15T10:40:21;24.03;;;9.93;;
8952;SDS011;4511;50.890;8.054;2024-01-15T10:42:49;14.20;;;9.50;;
8952;SDS011;4511;50.890;8.054;2024-01-15T10:45:16;13.97;;;10.37;;
8952;SDS011;4511;50.890;8.054;2024-01-15T10:47:43;14.63;;;10.67;;
8952;SDS011;4511;50.890;8.054;2024-01-15T10:50:11;13.73;;;10.10;;
8952;SDS011;4511;50.890;8.054;2024-01-15T10:52:38;13.47;;;9.40;;
8952;SDS011;4511;50.890;8.054;2024-01-15T10:55:06;10.47;;;9.20;;
8952;SDS011;4511;50.890;8.054;2024-01-15T10:57:34;11.83;;;9.37;;
8952;SDS011;4511;50.890;8.054;2024-01-15T11:00:04;11.43;;;9.10;;
8952;SDS011;4511;50.890;8.054;2024-01-15T11:02:31;11.10;;;9.30;;
8952;SDS011;4511;50.890;8.054;2024-01-15T11:05:00;9.80;;;8.00;;
8952;SDS011;4511;50.890;8.054;2024-01-15T11:07:27;13.07;;;9.13;;
8952;SDS011;4511;50.890;8.054;2024-01-15T11:09:56;9.23;;;7.97;;
8952;SDS011;4511;50.890;8.054;2024-01-15T11:12:23;11.50;;;8.63;;
8952;SDS011;4511;50.890;8.054;2024-01-15T11:14:50;10.13;;;9.00;;
8952;SDS011;4511;50.890;8.054;2024-01-15T11:17:21;10.10;;;7.53;;
8952;SDS011;4511;50.890;8.054;2024-01-15T11:19:48;10.07;;;9.00;;
8952;SDS011;4511;50.890;8.054;2024-01-15T11:25:13;9.73;;;8.37;;
8952;SDS011;4511;50.890;8.054;2024-01-15T11:27:41;8.87;;;7.67;;
8952;SDS011;4511;50.890;8.054;2024-01-15T11:30:09;9.13;;;7.37;;
8952;SDS011;4511;50.890;8.054;2024-01-15T11:32:39;9.30;;;8.33;;
8952;SDS011;4511;50.890;8.054;2024-01-15T11:35:07;9.10;;;7.93;;
8952;SDS011;4511;50.890;8.054;2024-01-15T11:40:23;8.30;;;7.57;;
8952;SDS011;4511;50.890;8.054;2024-01-15T11:43:03;8.00;;;7.30;;
8952;SDS011;4511;50.890;8.054;2024-01-15T11:45:30;8.27;;;7.47;;
8952;SDS011;4511;50.890;8.054;2024-01-15T11:50:42;7.10;;;6.47;;
8952;SDS011;4511;50.890;8.054;2024-01-15T11:53:15;6.90;;;6.30;;
8952;SDS011;4511;50.890;8.054;2024-01-15T11:55:44;7.60;;;6.90;;
8952;SDS011;4511;50.890;8.054;2024-01-15T11:58:13;8.23;;;7.43;;
8952;SDS011;4511;50.890;8.054;2024-01-15T12:00:42;9.07;;;8.00;;
8952;SDS011;4511;50.890;8.054;2024-01-15T12:03:09;7.10;;;6.40;;
8952;SDS011;4511;50.890;8.054;2024-01-15T12:05:38;7.40;;;6.80;;
8952;SDS011;4511;50.890;8.054;2024-01-15T12:08:07;6.50;;;6.00;;
8952;SDS011;4511;50.890;8.054;2024-01-15T12:10:35;6.67;;;6.07;;
8952;SDS011;4511;50.890;8.054;2024-01-15T12:13:04;6.07;;;5.57;;
8952;SDS011;4511;50.890;8.054;2024-01-15T12:15:35;6.37;;;5.87;;
8952;SDS011;4511;50.890;8.054;2024-01-15T12:18:03;7.07;;;6.20;;
8952;SDS011;4511;50.890;8.054;2024-01-15T12:20:30;6.30;;;5.80;;
8952;SDS011;4511;50.890;8.054;2024-01-15T12:23:00;5.90;;;5.40;;
8952;SDS011;4511;50.890;8.054;2024-01-15T12:25:28;6.20;;;5.60;;
8952;SDS011;4511;50.890;8.054;2024-01-15T12:27:56;6.30;;;5.70;;
8952;SDS011;4511;50.890;8.054;2024-01-15T12:30:23;5.50;;;5.00;;
8952;SDS011;4511;50.890;8.054;2024-01-15T12:32:50;6.20;;;5.70;;
8952;SDS011;4511;50.890;8.054;2024-01-15T12:35:16;6.33;;;5.73;;
8952;SDS011;4511;50.890;8.054;2024-01-15T12:37:43;5.40;;;5.00;;
8952;SDS011;4511;50.890;8.054;2024-01-15T12:40:12;6.17;;;5.57;;
8952;SDS011;4511;50.890;8.054;2024-01-15T12:42:39;5.07;;;4.70;;
8952;SDS011;4511;50.890;8.054;2024-01-15T12:45:06;5.97;;;5.37;;
8952;SDS011;4511;50.890;8.054;2024-01-15T12:47:34;5.07;;;4.77;;
8952;SDS011;4511;50.890;8.054;2024-01-15T12:50:02;5.57;;;5.13;;
8952;SDS011;4511;50.890;8.054;2024-01-15T12:52:32;5.50;;;5.10;;
8952;SDS011;4511;50.890;8.054;2024-01-15T12:54:59;6.07;;;5.57;;
8952;SDS011;4511;50.890;8.054;2024-01-15T12:57:28;6.23;;;5.63;;
8952;SDS011;4511;50.890;8.054;2024-01-15T12:59:55;6.33;;;5.77;;
8952;SDS011;4511;50.890;8.054;2024-01-15T13:02:22;6.40;;;5.80;;
8952;SDS011;4511;50.890;8.054;2024-01-15T13:04:49;6.27;;;5.67;;
8952;SDS011;4511;50.890;8.054;2024-01-15T13:07:16;6.13;;;5.50;;
8952;SDS011;4511;50.890;8.054;2024-01-15T13:09:42;6.83;;;6.13;;
8952;SDS011;4511;50.890;8.054;2024-01-15T13:12:09;6.33;;;5.77;;
8952;SDS011;4511;50.890;8.054;2024-01-15T13:14:37;5.97;;;5.47;;
8952;SDS011;4511;50.890;8.054;2024-01-15T13:17:05;6.43;;;5.70;;
8952;SDS011;4511;50.890;8.054;2024-01-15T13:19:32;6.87;;;6.03;;
8952;SDS011;4511;50.890;8.054;2024-01-15T13:21:59;6.80;;;5.30;;
8952;SDS011;4511;50.890;8.054;2024-01-15T13:24:26;6.87;;;5.80;;
8952;SDS011;4511;50.890;8.054;2024-01-15T13:26:52;6.27;;;5.30;;
8952;SDS011;4511;50.890;8.054;2024-01-15T13:29:19;6.10;;;5.50;;
8952;SDS011;4511;50.890;8.054;2024-01-15T13:31:47;8.43;;;5.60;;
8952;SDS011;4511;50.890;8.054;2024-01-15T13:34:14;5.70;;;5.20;;
8952;SDS011;4511;50.890;8.054;2024-01-15T13:36:41;6.20;;;5.30;;
8952;SDS011;4511;50.890;8.054;2024-01-15T13:39:08;9.13;;;5.57;;
8952;SDS011;4511;50.890;8.054;2024-01-15T13:41:34;6.13;;;5.53;;
8952;SDS011;4511;50.890;8.054;2024-01-15T13:44:02;7.77;;;5.97;;
8952;SDS011;4511;50.890;8.054;2024-01-15T13:46:28;6.33;;;5.43;;
8952;SDS011;4511;50.890;8.054;2024-01-15T13:48:57;6.07;;;5.43;;
8952;SDS011;4511;50.890;8.054;2024-01-15T13:51:24;6.80;;;6.20;;
8952;SDS011;4511;50.890;8.054;2024-01-15T13:53:50;10.37;;;6.40;;
8952;SDS011;4511;50.890;8.054;2024-01-15T13:56:18;7.03;;;6.27;;
8952;SDS011;4511;50.890;8.054;2024-01-15T13:58:45;6.73;;;5.77;;
8952;SDS011;4511;50.890;8.054;2024-01-15T14:01:13;13.53;;;6.50;;
8952;SDS011;4511;50.890;8.054;2024-01-15T14:03:39;9.77;;;6.93;;
8952;SDS011;4511;50.890;8.054;2024-01-15T14:06:07;7.97;;;6.70;;
8952;SDS011;4511;50.890;8.054;2024-01-15T14:08:35;6.23;;;5.73;;
8952;SDS011;4511;50.890;8.054;2024-01-15T14:11:02;7.13;;;6.30;;
8952;SDS011;4511;50.890;8.054;2024-01-15T14:13:31;7.53;;;6.63;;
8952;SDS011;4511;50.890;8.054;2024-01-15T14:15:57;7.13;;;6.43;;
8952;SDS011;4511;50.890;8.054;2024-01-15T14:18:24;8.77;;;6.60;;
8952;SDS011;4511;50.890;8.054;2024-01-15T14:20:52;8.97;;;6.23;;
8952;SDS011;4511;50.890;8.054;2024-01-15T14:23:20;8.07;;;6.87;;
8952;SDS011;4511;50.890;8.054;2024-01-15T14:25:47;9.20;;;7.20;;
8952;SDS011;4511;50.890;8.054;2024-01-15T14:28:14;9.73;;;7.10;;
8952;SDS011;4511;50.890;8.054;2024-01-15T14:30:40;8.07;;;7.23;;
8952;SDS011;4511;50.890;8.054;2024-01-15T14:33:07;8.63;;;7.40;;
8952;SDS011;4511;50.890;8.054;2024-01-15T14:35:34;10.40;;;7.70;;
8952;SDS011;4511;50.890;8.054;2024-01-15T14:38:01;8.20;;;7.40;;
8952;SDS011;4511;50.890;8.054;2024-01-15T14:40:29;9.13;;;8.07;;
8952;SDS011;4511;50.890;8.054;2024-01-15T14:42:55;8.70;;;7.80;;
8952;SDS011;4511;50.890;8.054;2024-01-15T14:45:22;9.27;;;7.63;;
8952;SDS011;4511;50.890;8.054;2024-01-15T14:47:49;8.60;;;7.57;;
8952;SDS011;4511;50.890;8.054;2024-01-15T14:50:16;9.60;;;7.23;;
8952;SDS011;4511;50.890;8.054;2024-01-15T14:52:43;8.47;;;7.20;;
8952;SDS011;4511;50.890;8.054;2024-01-15T14:55:11;8.10;;;7.30;;
8952;SDS011;4511;50.890;8.054;2024-01-15T14:57:39;8.90;;;7.67;;
8952;SDS011;4511;50.890;8.054;2024-01-15T15:00:06;9.17;;;7.97;;
8952;SDS011;4511;50.890;8.054;2024-01-15T15:02:34;8.03;;;6.87;;